This is the latest recevied weather packets stored in our database for station/object KG5CK-1. If no packets are shown the sender has not sent any weather packets the latest 1 day(s).
| Time | Temp. | Humidity | Pressure | Rain* | Wind** | Luminosity | Snow |
|---|---|---|---|---|---|---|---|
| 1778072343 | 11.67° C | 88% | 1009.3 hPa | 0 mm | 1.34 m/s, 14° | - | - |
| 1778072286 | 11.67° C | 88% | 1009.3 hPa | 0 mm | 1.34 m/s, 14° | - | - |
| 1778072163 | 11.67° C | 88% | 1009.3 hPa | 0 mm | 1.34 m/s, 14° | - | - |
| 1778072103 | 11.67° C | 87% | 1009.3 hPa | 0 mm | 3.13 m/s, 7° | - | - |
| 1778072043 | 11.67° C | 87% | 1009.3 hPa | 0 mm | 3.13 m/s, 7° | - | - |
| 1778071923 | 11.67° C | 87% | 1009.3 hPa | 0 mm | 3.13 m/s, 7° | - | - |
| 1778071863 | 11.67° C | 87% | 1009.3 hPa | 0 mm | 3.13 m/s, 7° | - | - |
| 1778071683 | 12.22° C | 87% | 1009.1 hPa | 0 mm | 1.79 m/s, 23° | - | - |
| 1778071623 | 12.22° C | 87% | 1009.1 hPa | 0 mm | 1.79 m/s, 23° | - | - |
| 1778071563 | 12.22° C | 87% | 1009.1 hPa | 0 mm | 1.79 m/s, 23° | - | - |
| 1778071323 | 12.22° C | 87% | 1008.8 hPa | 0 mm | 1.34 m/s, 39° | - | - |
| 1778071263 | 12.22° C | 87% | 1008.8 hPa | 0 mm | 1.34 m/s, 39° | - | - |
| 1778071083 | 11.67° C | 87% | 1009.2 hPa | 0 mm | 0.89 m/s, 29° | - | - |
| 1778070963 | 11.67° C | 87% | 1009.2 hPa | 0 mm | 0.89 m/s, 29° | - | - |
| 1778070843 | 12.22° C | 87% | 1009 hPa | 0 mm | 1.34 m/s, 33° | - | - |
| 1778070543 | 12.22° C | 87% | 1008.9 hPa | 0 mm | 1.34 m/s, 63° | - | - |
| 1778070483 | 12.22° C | 87% | 1008.9 hPa | 0 mm | 1.34 m/s, 63° | - | - |
| 1778070423 | 12.22° C | 87% | 1008.9 hPa | 0 mm | 1.34 m/s, 63° | - | - |
| 1778069944 | 11.67° C | 86% | 1008.6 hPa | 0 mm | 0.89 m/s, 50° | - | - |
| 1778069703 | 11.67° C | 86% | 1008.6 hPa | 0 mm | 0.89 m/s, 50° | - | - |
| 1778069643 | 12.22° C | 86% | 1008.8 hPa | 0 mm | 2.24 m/s, 7° | - | - |
| 1778069583 | 12.22° C | 86% | 1008.8 hPa | 0 mm | 2.24 m/s, 7° | - | - |
| 1778069463 | 12.22° C | 86% | 1008.8 hPa | 0 mm | 2.24 m/s, 7° | - | - |
| 1778069403 | 12.22° C | 86% | 1008.9 hPa | 0 mm | 1.34 m/s, 28° | - | - |
| 1778069283 | 12.22° C | 86% | 1008.9 hPa | 0 mm | 1.34 m/s, 28° | - | - |
* Rain latest hour (hover to see other rain measurements)
** Current wind speed in m/s (hover to see current wind gust speed)